Terminal Aerodrome Forecast
Issued by NWS

Home | Current Version | Previous Version | Text Only | Print | Product List | Glossary On
Versions: 1 2 3 4 5 6 7 8 9 10 11 12 13 14 15 16 17 18 19 20 21
000
FTUS43 KLSX 281300 AAA
TAFCPS
TAF AMD
KCPS 281357Z 2814/2912 14008KT P6SM SKC
      TEMPO 2814/2815 5SM BR
     FM281700 15013G20KT P6SM SCT250
     FM290000 16011KT P6SM SCT060 BKN200
     FM290300 18011KT P6SM BKN040 WS018/23050KT
     FM290900 23013G20KT P6SM SCT030 BKN200
     FM291100 29015G25KT P6SM BKN020=

USA.gov is the U.S. government's official web portal to all federal, state and local government web resources and services.